sensor_id;sensor_type;location;lat;lon;timestamp;P1;durP1;ratioP1;P2;durP2;ratioP2
4375;SDS011;2202;50.866;12.750;2023-11-22T00:01:47;32.83;;;19.13;;
4375;SDS011;2202;50.866;12.750;2023-11-22T00:04:14;31.33;;;19.30;;
4375;SDS011;2202;50.866;12.750;2023-11-22T00:06:44;35.53;;;19.70;;
4375;SDS011;2202;50.866;12.750;2023-11-22T00:09:10;30.97;;;18.63;;
4375;SDS011;2202;50.866;12.750;2023-11-22T00:11:37;30.30;;;17.57;;
4375;SDS011;2202;50.866;12.750;2023-11-22T00:14:04;33.33;;;20.53;;
4375;SDS011;2202;50.866;12.750;2023-11-22T00:16:31;36.47;;;22.00;;
4375;SDS011;2202;50.866;12.750;2023-11-22T00:18:59;37.07;;;20.63;;
4375;SDS011;2202;50.866;12.750;2023-11-22T00:21:26;42.63;;;23.50;;
4375;SDS011;2202;50.866;12.750;2023-11-22T00:23:54;39.10;;;22.00;;
4375;SDS011;2202;50.866;12.750;2023-11-22T00:26:21;36.13;;;21.70;;
4375;SDS011;2202;50.866;12.750;2023-11-22T00:28:47;37.90;;;23.50;;
4375;SDS011;2202;50.866;12.750;2023-11-22T00:31:14;47.10;;;24.63;;
4375;SDS011;2202;50.866;12.750;2023-11-22T00:33:41;48.30;;;24.47;;
4375;SDS011;2202;50.866;12.750;2023-11-22T00:36:08;44.10;;;24.57;;
4375;SDS011;2202;50.866;12.750;2023-11-22T00:38:35;45.73;;;26.10;;
4375;SDS011;2202;50.866;12.750;2023-11-22T00:41:04;58.47;;;26.20;;
4375;SDS011;2202;50.866;12.750;2023-11-22T00:43:32;62.63;;;28.43;;
4375;SDS011;2202;50.866;12.750;2023-11-22T00:45:59;54.67;;;27.03;;
4375;SDS011;2202;50.866;12.750;2023-11-22T00:48:26;50.33;;;26.40;;
4375;SDS011;2202;50.866;12.750;2023-11-22T00:50:53;51.70;;;27.73;;
4375;SDS011;2202;50.866;12.750;2023-11-22T00:53:20;49.43;;;26.10;;
4375;SDS011;2202;50.866;12.750;2023-11-22T00:55:47;53.63;;;29.00;;
4375;SDS011;2202;50.866;12.750;2023-11-22T00:58:15;51.17;;;26.10;;
4375;SDS011;2202;50.866;12.750;2023-11-22T01:00:42;42.37;;;24.80;;
4375;SDS011;2202;50.866;12.750;2023-11-22T01:03:09;54.87;;;27.90;;
4375;SDS011;2202;50.866;12.750;2023-11-22T01:05:36;50.40;;;26.20;;
4375;SDS011;2202;50.866;12.750;2023-11-22T01:08:03;44.63;;;24.60;;
4375;SDS011;2202;50.866;12.750;2023-11-22T01:10:30;61.43;;;25.50;;
4375;SDS011;2202;50.866;12.750;2023-11-22T01:12:57;41.47;;;22.03;;
4375;SDS011;2202;50.866;12.750;2023-11-22T01:15:25;46.17;;;23.03;;
4375;SDS011;2202;50.866;12.750;2023-11-22T01:17:52;45.97;;;25.40;;
4375;SDS011;2202;50.866;12.750;2023-11-22T01:20:19;45.73;;;24.50;;
4375;SDS011;2202;50.866;12.750;2023-11-22T01:22:47;47.27;;;24.40;;
4375;SDS011;2202;50.866;12.750;2023-11-22T01:25:14;39.37;;;22.37;;
4375;SDS011;2202;50.866;12.750;2023-11-22T01:27:41;38.37;;;21.40;;
4375;SDS011;2202;50.866;12.750;2023-11-22T01:30:08;43.73;;;22.57;;
4375;SDS011;2202;50.866;12.750;2023-11-22T01:32:36;40.03;;;22.70;;
4375;SDS011;2202;50.866;12.750;2023-11-22T01:35:04;33.70;;;21.27;;
4375;SDS011;2202;50.866;12.750;2023-11-22T01:37:31;35.70;;;22.60;;
4375;SDS011;2202;50.866;12.750;2023-11-22T01:39:58;36.90;;;20.40;;
4375;SDS011;2202;50.866;12.750;2023-11-22T01:42:27;37.70;;;19.97;;
4375;SDS011;2202;50.866;12.750;2023-11-22T01:44:54;32.23;;;18.97;;
4375;SDS011;2202;50.866;12.750;2023-11-22T01:47:21;37.20;;;20.80;;
4375;SDS011;2202;50.866;12.750;2023-11-22T01:49:49;35.80;;;19.70;;
4375;SDS011;2202;50.866;12.750;2023-11-22T01:52:16;30.70;;;17.60;;
4375;SDS011;2202;50.866;12.750;2023-11-22T01:54:43;33.10;;;18.77;;
4375;SDS011;2202;50.866;12.750;2023-11-22T01:57:10;32.53;;;19.43;;
4375;SDS011;2202;50.866;12.750;2023-11-22T01:59:37;34.27;;;18.57;;
4375;SDS011;2202;50.866;12.750;2023-11-22T02:02:05;33.33;;;19.53;;
4375;SDS011;2202;50.866;12.750;2023-11-22T02:04:32;31.20;;;19.33;;
4375;SDS011;2202;50.866;12.750;2023-11-22T02:07:00;32.33;;;18.53;;
4375;SDS011;2202;50.866;12.750;2023-11-22T02:09:28;33.20;;;18.50;;
4375;SDS011;2202;50.866;12.750;2023-11-22T02:11:55;29.00;;;18.00;;
4375;SDS011;2202;50.866;12.750;2023-11-22T02:14:22;28.07;;;16.67;;
4375;SDS011;2202;50.866;12.750;2023-11-22T02:16:49;30.27;;;17.20;;
4375;SDS011;2202;50.866;12.750;2023-11-22T02:19:16;29.60;;;15.67;;
4375;SDS011;2202;50.866;12.750;2023-11-22T02:21:44;31.03;;;17.40;;
4375;SDS011;2202;50.866;12.750;2023-11-22T02:24:13;32.83;;;17.33;;
4375;SDS011;2202;50.866;12.750;2023-11-22T02:26:43;31.80;;;16.27;;
4375;SDS011;2202;50.866;12.750;2023-11-22T02:29:11;26.40;;;16.60;;
4375;SDS011;2202;50.866;12.750;2023-11-22T02:31:38;31.37;;;18.60;;
4375;SDS011;2202;50.866;12.750;2023-11-22T02:34:05;24.10;;;14.83;;
4375;SDS011;2202;50.866;12.750;2023-11-22T02:36:32;26.90;;;16.37;;
4375;SDS011;2202;50.866;12.750;2023-11-22T02:38:59;26.40;;;15.10;;
4375;SDS011;2202;50.866;12.750;2023-11-22T02:41:28;29.40;;;17.80;;
4375;SDS011;2202;50.866;12.750;2023-11-22T02:43:55;26.23;;;17.67;;
4375;SDS011;2202;50.866;12.750;2023-11-22T02:46:22;27.37;;;16.10;;
4375;SDS011;2202;50.866;12.750;2023-11-22T02:48:49;28.50;;;17.57;;
4375;SDS011;2202;50.866;12.750;2023-11-22T02:51:16;26.77;;;16.23;;
4375;SDS011;2202;50.866;12.750;2023-11-22T02:53:43;28.83;;;17.07;;
4375;SDS011;2202;50.866;12.750;2023-11-22T02:56:11;32.27;;;17.27;;
4375;SDS011;2202;50.866;12.750;2023-11-22T02:58:39;28.87;;;16.90;;
4375;SDS011;2202;50.866;12.750;2023-11-22T03:01:06;25.10;;;16.50;;
4375;SDS011;2202;50.866;12.750;2023-11-22T03:03:33;27.63;;;17.50;;
4375;SDS011;2202;50.866;12.750;2023-11-22T03:06:00;30.10;;;17.03;;
4375;SDS011;2202;50.866;12.750;2023-11-22T03:08:27;26.30;;;17.20;;
4375;SDS011;2202;50.866;12.750;2023-11-22T03:10:54;29.20;;;17.73;;
4375;SDS011;2202;50.866;12.750;2023-11-22T03:13:21;26.57;;;15.93;;
4375;SDS011;2202;50.866;12.750;2023-11-22T03:15:49;30.10;;;16.57;;
4375;SDS011;2202;50.866;12.750;2023-11-22T03:18:17;25.00;;;15.57;;
4375;SDS011;2202;50.866;12.750;2023-11-22T03:20:44;30.80;;;17.80;;
4375;SDS011;2202;50.866;12.750;2023-11-22T03:23:11;32.10;;;17.27;;
4375;SDS011;2202;50.866;12.750;2023-11-22T03:25:41;30.37;;;16.53;;
4375;SDS011;2202;50.866;12.750;2023-11-22T03:28:08;28.40;;;16.23;;
4375;SDS011;2202;50.866;12.750;2023-11-22T03:30:35;24.20;;;15.30;;
4375;SDS011;2202;50.866;12.750;2023-11-22T03:33:04;26.10;;;15.87;;
4375;SDS011;2202;50.866;12.750;2023-11-22T03:35:30;23.50;;;15.93;;
4375;SDS011;2202;50.866;12.750;2023-11-22T03:37:57;28.47;;;16.03;;
4375;SDS011;2202;50.866;12.750;2023-11-22T03:40:24;28.93;;;16.47;;
4375;SDS011;2202;50.866;12.750;2023-11-22T03:42:51;34.97;;;17.60;;
4375;SDS011;2202;50.866;12.750;2023-11-22T03:45:18;30.20;;;16.17;;
4375;SDS011;2202;50.866;12.750;2023-11-22T03:47:44;26.50;;;15.03;;
4375;SDS011;2202;50.866;12.750;2023-11-22T03:50:13;26.00;;;16.30;;
4375;SDS011;2202;50.866;12.750;2023-11-22T03:52:39;27.23;;;15.70;;
4375;SDS011;2202;50.866;12.750;2023-11-22T03:55:06;26.60;;;14.63;;
4375;SDS011;2202;50.866;12.750;2023-11-22T03:57:34;26.33;;;14.50;;
4375;SDS011;2202;50.866;12.750;2023-11-22T04:00:01;26.20;;;15.30;;
4375;SDS011;2202;50.866;12.750;2023-11-22T04:02:31;27.00;;;16.00;;
4375;SDS011;2202;50.866;12.750;2023-11-22T04:04:58;29.93;;;15.93;;
4375;SDS011;2202;50.866;12.750;2023-11-22T04:07:26;33.47;;;16.90;;
4375;SDS011;2202;50.866;12.750;2023-11-22T04:09:53;25.60;;;15.33;;
4375;SDS011;2202;50.866;12.750;2023-11-22T04:12:20;22.80;;;15.23;;
4375;SDS011;2202;50.866;12.750;2023-11-22T04:14:47;25.00;;;15.77;;
4375;SDS011;2202;50.866;12.750;2023-11-22T04:17:16;25.30;;;15.37;;
4375;SDS011;2202;50.866;12.750;2023-11-22T04:19:43;25.77;;;15.63;;
4375;SDS011;2202;50.866;12.750;2023-11-22T04:22:10;30.37;;;16.20;;
4375;SDS011;2202;50.866;12.750;2023-11-22T04:24:38;31.57;;;16.83;;
4375;SDS011;2202;50.866;12.750;2023-11-22T04:27:05;28.10;;;18.10;;
4375;SDS011;2202;50.866;12.750;2023-11-22T04:29:32;25.13;;;15.57;;
4375;SDS011;2202;50.866;12.750;2023-11-22T04:31:59;24.00;;;15.60;;
4375;SDS011;2202;50.866;12.750;2023-11-22T04:34:26;28.47;;;16.43;;
4375;SDS011;2202;50.866;12.750;2023-11-22T04:36:53;28.80;;;16.87;;
4375;SDS011;2202;50.866;12.750;2023-11-22T04:39:19;27.43;;;17.87;;
4375;SDS011;2202;50.866;12.750;2023-11-22T04:41:47;31.20;;;18.00;;
4375;SDS011;2202;50.866;12.750;2023-11-22T04:44:14;36.90;;;22.50;;
4375;SDS011;2202;50.866;12.750;2023-11-22T04:46:41;30.97;;;18.03;;
4375;SDS011;2202;50.866;12.750;2023-11-22T04:49:08;27.40;;;16.87;;
4375;SDS011;2202;50.866;12.750;2023-11-22T04:51:35;29.97;;;16.83;;
4375;SDS011;2202;50.866;12.750;2023-11-22T04:54:02;32.43;;;18.73;;
4375;SDS011;2202;50.866;12.750;2023-11-22T04:56:29;25.20;;;15.97;;
4375;SDS011;2202;50.866;12.750;2023-11-22T04:58:57;27.30;;;16.43;;
4375;SDS011;2202;50.866;12.750;2023-11-22T05:01:24;32.50;;;19.07;;
4375;SDS011;2202;50.866;12.750;2023-11-22T05:03:51;28.67;;;17.37;;
4375;SDS011;2202;50.866;12.750;2023-11-22T05:06:18;31.20;;;17.57;;
4375;SDS011;2202;50.866;12.750;2023-11-22T05:08:45;25.90;;;15.77;;
4375;SDS011;2202;50.866;12.750;2023-11-22T05:11:12;25.93;;;16.70;;
4375;SDS011;2202;50.866;12.750;2023-11-22T05:13:40;27.70;;;17.57;;
4375;SDS011;2202;50.866;12.750;2023-11-22T05:16:09;26.43;;;16.43;;
4375;SDS011;2202;50.866;12.750;2023-11-22T05:18:36;24.93;;;15.60;;
4375;SDS011;2202;50.866;12.750;2023-11-22T05:21:03;27.97;;;16.33;;
4375;SDS011;2202;50.866;12.750;2023-11-22T05:23:30;30.37;;;19.70;;
4375;SDS011;2202;50.866;12.750;2023-11-22T05:25:57;32.07;;;18.27;;
4375;SDS011;2202;50.866;12.750;2023-11-22T05:28:24;26.13;;;17.70;;
4375;SDS011;2202;50.866;12.750;2023-11-22T05:30:51;30.07;;;18.77;;
4375;SDS011;2202;50.866;12.750;2023-11-22T05:33:19;29.43;;;17.57;;
4375;SDS011;2202;50.866;12.750;2023-11-22T05:35:46;29.40;;;17.30;;
4375;SDS011;2202;50.866;12.750;2023-11-22T05:38:13;30.70;;;18.97;;
4375;SDS011;2202;50.866;12.750;2023-11-22T05:40:40;30.17;;;17.07;;
4375;SDS011;2202;50.866;12.750;2023-11-22T05:43:08;29.10;;;17.30;;
4375;SDS011;2202;50.866;12.750;2023-11-22T05:45:35;35.17;;;17.93;;
4375;SDS011;2202;50.866;12.750;2023-11-22T05:48:02;29.73;;;17.30;;
4375;SDS011;2202;50.866;12.750;2023-11-22T05:50:30;28.70;;;18.47;;
4375;SDS011;2202;50.866;12.750;2023-11-22T05:52:57;26.53;;;16.80;;
4375;SDS011;2202;50.866;12.750;2023-11-22T05:55:25;28.80;;;17.83;;
4375;SDS011;2202;50.866;12.750;2023-11-22T05:57:52;25.33;;;17.30;;
4375;SDS011;2202;50.866;12.750;2023-11-22T06:00:19;29.73;;;17.67;;
4375;SDS011;2202;50.866;12.750;2023-11-22T06:02:46;30.07;;;16.93;;
4375;SDS011;2202;50.866;12.750;2023-11-22T06:05:13;29.80;;;18.63;;
4375;SDS011;2202;50.866;12.750;2023-11-22T06:07:42;26.70;;;17.00;;
4375;SDS011;2202;50.866;12.750;2023-11-22T06:10:09;30.00;;;17.20;;
4375;SDS011;2202;50.866;12.750;2023-11-22T06:12:38;29.43;;;18.40;;
4375;SDS011;2202;50.866;12.750;2023-11-22T06:15:05;33.40;;;20.10;;
4375;SDS011;2202;50.866;12.750;2023-11-22T06:17:32;34.90;;;20.20;;
4375;SDS011;2202;50.866;12.750;2023-11-22T06:19:59;26.23;;;16.73;;
4375;SDS011;2202;50.866;12.750;2023-11-22T06:22:28;30.90;;;17.93;;
4375;SDS011;2202;50.866;12.750;2023-11-22T06:24:57;29.00;;;17.60;;
4375;SDS011;2202;50.866;12.750;2023-11-22T06:27:24;30.27;;;17.17;;
4375;SDS011;2202;50.866;12.750;2023-11-22T06:29:51;30.83;;;17.17;;
4375;SDS011;2202;50.866;12.750;2023-11-22T06:32:17;31.23;;;16.67;;
4375;SDS011;2202;50.866;12.750;2023-11-22T06:34:44;29.53;;;19.07;;
4375;SDS011;2202;50.866;12.750;2023-11-22T06:37:11;31.80;;;18.30;;
4375;SDS011;2202;50.866;12.750;2023-11-22T06:39:38;33.87;;;20.90;;
4375;SDS011;2202;50.866;12.750;2023-11-22T06:42:08;33.80;;;19.03;;
4375;SDS011;2202;50.866;12.750;2023-11-22T06:44:35;30.20;;;19.20;;
4375;SDS011;2202;50.866;12.750;2023-11-22T06:47:02;32.97;;;18.33;;
4375;SDS011;2202;50.866;12.750;2023-11-22T06:49:29;30.47;;;19.47;;
4375;SDS011;2202;50.866;12.750;2023-11-22T06:51:56;32.67;;;18.30;;
4375;SDS011;2202;50.866;12.750;2023-11-22T06:54:23;32.33;;;20.70;;
4375;SDS011;2202;50.866;12.750;2023-11-22T06:56:49;32.20;;;17.40;;
4375;SDS011;2202;50.866;12.750;2023-11-22T06:59:18;33.23;;;18.13;;
4375;SDS011;2202;50.866;12.750;2023-11-22T07:01:45;31.30;;;19.30;;
4375;SDS011;2202;50.866;12.750;2023-11-22T07:04:12;31.13;;;20.60;;
4375;SDS011;2202;50.866;12.750;2023-11-22T07:06:39;36.73;;;21.33;;
4375;SDS011;2202;50.866;12.750;2023-11-22T07:09:07;32.03;;;18.50;;
4375;SDS011;2202;50.866;12.750;2023-11-22T07:11:35;32.50;;;19.00;;
4375;SDS011;2202;50.866;12.750;2023-11-22T07:14:03;35.30;;;18.40;;
4375;SDS011;2202;50.866;12.750;2023-11-22T07:16:32;29.27;;;17.87;;
4375;SDS011;2202;50.866;12.750;2023-11-22T07:18:59;32.50;;;19.97;;
4375;SDS011;2202;50.866;12.750;2023-11-22T07:21:28;31.60;;;18.50;;
4375;SDS011;2202;50.866;12.750;2023-11-22T07:23:55;37.63;;;21.13;;
4375;SDS011;2202;50.866;12.750;2023-11-22T07:26:22;31.03;;;18.50;;
4375;SDS011;2202;50.866;12.750;2023-11-22T07:28:51;31.63;;;19.67;;
4375;SDS011;2202;50.866;12.750;2023-11-22T07:31:18;34.43;;;19.83;;
4375;SDS011;2202;50.866;12.750;2023-11-22T07:33:47;38.93;;;20.10;;
4375;SDS011;2202;50.866;12.750;2023-11-22T07:36:14;31.73;;;18.70;;
4375;SDS011;2202;50.866;12.750;2023-11-22T07:38:42;39.33;;;20.00;;
4375;SDS011;2202;50.866;12.750;2023-11-22T07:41:09;38.03;;;19.93;;
4375;SDS011;2202;50.866;12.750;2023-11-22T07:43:36;32.80;;;19.40;;
4375;SDS011;2202;50.866;12.750;2023-11-22T07:46:04;41.33;;;20.77;;
4375;SDS011;2202;50.866;12.750;2023-11-22T07:48:33;38.10;;;22.20;;
4375;SDS011;2202;50.866;12.750;2023-11-22T07:51:03;41.03;;;21.70;;
4375;SDS011;2202;50.866;12.750;2023-11-22T07:53:31;37.30;;;21.40;;
4375;SDS011;2202;50.866;12.750;2023-11-22T07:55:59;32.40;;;20.17;;
4375;SDS011;2202;50.866;12.750;2023-11-22T07:58:29;42.07;;;21.87;;
4375;SDS011;2202;50.866;12.750;2023-11-22T08:00:56;36.27;;;19.83;;
4375;SDS011;2202;50.866;12.750;2023-11-22T08:03:24;33.60;;;19.80;;
4375;SDS011;2202;50.866;12.750;2023-11-22T08:05:51;36.50;;;21.30;;
4375;SDS011;2202;50.866;12.750;2023-11-22T08:08:21;41.83;;;23.07;;
4375;SDS011;2202;50.866;12.750;2023-11-22T08:10:48;38.03;;;22.30;;
4375;SDS011;2202;50.866;12.750;2023-11-22T08:13:18;36.73;;;21.10;;
4375;SDS011;2202;50.866;12.750;2023-11-22T08:15:47;34.30;;;20.17;;
4375;SDS011;2202;50.866;12.750;2023-11-22T08:18:14;33.37;;;18.90;;
4375;SDS011;2202;50.866;12.750;2023-11-22T08:20:41;29.43;;;17.73;;
4375;SDS011;2202;50.866;12.750;2023-11-22T08:23:08;34.53;;;19.17;;
4375;SDS011;2202;50.866;12.750;2023-11-22T08:25:36;39.70;;;22.30;;
4375;SDS011;2202;50.866;12.750;2023-11-22T08:28:04;38.03;;;22.10;;
4375;SDS011;2202;50.866;12.750;2023-11-22T08:30:33;38.47;;;23.30;;
4375;SDS011;2202;50.866;12.750;2023-11-22T08:33:00;41.40;;;21.90;;
4375;SDS011;2202;50.866;12.750;2023-11-22T08:35:27;46.93;;;24.77;;
4375;SDS011;2202;50.866;12.750;2023-11-22T08:37:54;42.97;;;23.27;;
4375;SDS011;2202;50.866;12.750;2023-11-22T08:40:23;42.40;;;23.10;;
4375;SDS011;2202;50.866;12.750;2023-11-22T08:42:52;45.07;;;25.70;;
4375;SDS011;2202;50.866;12.750;2023-11-22T08:45:19;40.40;;;22.80;;
4375;SDS011;2202;50.866;12.750;2023-11-22T08:47:46;40.73;;;24.37;;
4375;SDS011;2202;50.866;12.750;2023-11-22T08:50:12;45.00;;;23.93;;
4375;SDS011;2202;50.866;12.750;2023-11-22T08:52:40;39.00;;;23.53;;
4375;SDS011;2202;50.866;12.750;2023-11-22T08:55:10;47.83;;;22.70;;
4375;SDS011;2202;50.866;12.750;2023-11-22T08:57:37;44.43;;;23.83;;
4375;SDS011;2202;50.866;12.750;2023-11-22T09:00:07;40.63;;;22.90;;
4375;SDS011;2202;50.866;12.750;2023-11-22T09:02:36;44.03;;;24.60;;
4375;SDS011;2202;50.866;12.750;2023-11-22T09:05:04;43.37;;;24.20;;
4375;SDS011;2202;50.866;12.750;2023-11-22T09:07:33;46.63;;;23.33;;
4375;SDS011;2202;50.866;12.750;2023-11-22T09:10:00;46.27;;;23.70;;
4375;SDS011;2202;50.866;12.750;2023-11-22T09:12:34;44.00;;;23.33;;
4375;SDS011;2202;50.866;12.750;2023-11-22T09:15:01;46.17;;;24.90;;
4375;SDS011;2202;50.866;12.750;2023-11-22T09:17:30;42.20;;;24.60;;
4375;SDS011;2202;50.866;12.750;2023-11-22T09:19:57;39.53;;;23.37;;
4375;SDS011;2202;50.866;12.750;2023-11-22T09:22:24;45.60;;;26.80;;
4375;SDS011;2202;50.866;12.750;2023-11-22T09:24:51;41.93;;;24.57;;
4375;SDS011;2202;50.866;12.750;2023-11-22T09:27:18;45.37;;;26.00;;
4375;SDS011;2202;50.866;12.750;2023-11-22T09:29:45;50.63;;;28.40;;
4375;SDS011;2202;50.866;12.750;2023-11-22T09:32:13;50.13;;;25.60;;
4375;SDS011;2202;50.866;12.750;2023-11-22T09:34:41;50.03;;;26.70;;
4375;SDS011;2202;50.866;12.750;2023-11-22T09:37:09;54.97;;;26.37;;
4375;SDS011;2202;50.866;12.750;2023-11-22T09:39:36;44.23;;;28.30;;
4375;SDS011;2202;50.866;12.750;2023-11-22T09:42:04;49.30;;;25.73;;
4375;SDS011;2202;50.866;12.750;2023-11-22T09:44:31;43.60;;;26.50;;
4375;SDS011;2202;50.866;12.750;2023-11-22T09:46:58;49.50;;;25.33;;
4375;SDS011;2202;50.866;12.750;2023-11-22T09:49:25;46.60;;;26.13;;
4375;SDS011;2202;50.866;12.750;2023-11-22T09:51:58;47.10;;;25.83;;
4375;SDS011;2202;50.866;12.750;2023-11-22T09:54:29;48.23;;;25.27;;
4375;SDS011;2202;50.866;12.750;2023-11-22T09:56:59;50.83;;;25.37;;
4375;SDS011;2202;50.866;12.750;2023-11-22T09:59:28;43.67;;;24.60;;
4375;SDS011;2202;50.866;12.750;2023-11-22T10:01:57;49.67;;;26.93;;
4375;SDS011;2202;50.866;12.750;2023-11-22T10:04:25;48.93;;;26.60;;
4375;SDS011;2202;50.866;12.750;2023-11-22T10:06:54;43.83;;;23.17;;
4375;SDS011;2202;50.866;12.750;2023-11-22T10:09:24;49.20;;;25.13;;
4375;SDS011;2202;50.866;12.750;2023-11-22T10:11:52;43.60;;;23.40;;
4375;SDS011;2202;50.866;12.750;2023-11-22T10:14:22;38.00;;;22.03;;
4375;SDS011;2202;50.866;12.750;2023-11-22T10:16:57;37.30;;;21.70;;
4375;SDS011;2202;50.866;12.750;2023-11-22T10:19:24;40.63;;;22.90;;
4375;SDS011;2202;50.866;12.750;2023-11-22T10:22:01;39.80;;;22.70;;
4375;SDS011;2202;50.866;12.750;2023-11-22T10:24:31;38.47;;;21.40;;
4375;SDS011;2202;50.866;12.750;2023-11-22T10:26:59;45.47;;;23.77;;
4375;SDS011;2202;50.866;12.750;2023-11-22T10:29:26;36.17;;;22.77;;
4375;SDS011;2202;50.866;12.750;2023-11-22T10:31:53;38.67;;;22.73;;
4375;SDS011;2202;50.866;12.750;2023-11-22T10:34:21;36.23;;;21.77;;
4375;SDS011;2202;50.866;12.750;2023-11-22T10:36:48;39.87;;;20.37;;
4375;SDS011;2202;50.866;12.750;2023-11-22T10:39:18;32.13;;;19.13;;
4375;SDS011;2202;50.866;12.750;2023-11-22T10:41:47;35.13;;;20.60;;
4375;SDS011;2202;50.866;12.750;2023-11-22T10:44:16;30.50;;;19.37;;
4375;SDS011;2202;50.866;12.750;2023-11-22T10:46:46;33.00;;;21.07;;
4375;SDS011;2202;50.866;12.750;2023-11-22T10:49:13;33.00;;;19.57;;
4375;SDS011;2202;50.866;12.750;2023-11-22T10:51:40;31.50;;;19.60;;
4375;SDS011;2202;50.866;12.750;2023-11-22T10:54:10;36.23;;;20.10;;
4375;SDS011;2202;50.866;12.750;2023-11-22T10:56:38;31.53;;;19.50;;
4375;SDS011;2202;50.866;12.750;2023-11-22T10:59:10;29.00;;;18.87;;
4375;SDS011;2202;50.866;12.750;2023-11-22T11:01:39;30.40;;;18.70;;
4375;SDS011;2202;50.866;12.750;2023-11-22T11:04:18;31.30;;;20.33;;
4375;SDS011;2202;50.866;12.750;2023-11-22T11:06:46;32.97;;;18.10;;
4375;SDS011;2202;50.866;12.750;2023-11-22T11:09:19;28.37;;;16.37;;
4375;SDS011;2202;50.866;12.750;2023-11-22T11:11:49;26.40;;;16.40;;
4375;SDS011;2202;50.866;12.750;2023-11-22T11:14:17;22.60;;;14.40;;
4375;SDS011;2202;50.866;12.750;2023-11-22T11:16:45;24.30;;;14.63;;
4375;SDS011;2202;50.866;12.750;2023-11-22T11:19:15;27.30;;;16.43;;
4375;SDS011;2202;50.866;12.750;2023-11-22T11:21:43;23.97;;;15.80;;
4375;SDS011;2202;50.866;12.750;2023-11-22T11:24:11;22.17;;;15.73;;
4375;SDS011;2202;50.866;12.750;2023-11-22T11:26:38;24.60;;;14.57;;
4375;SDS011;2202;50.866;12.750;2023-11-22T11:29:05;23.27;;;14.17;;
4375;SDS011;2202;50.866;12.750;2023-11-22T11:31:38;29.80;;;16.20;;
4375;SDS011;2202;50.866;12.750;2023-11-22T11:34:06;23.87;;;15.00;;
4375;SDS011;2202;50.866;12.750;2023-11-22T11:36:33;25.60;;;15.27;;
4375;SDS011;2202;50.866;12.750;2023-11-22T11:39:05;25.87;;;16.30;;
4375;SDS011;2202;50.866;12.750;2023-11-22T11:41:34;26.87;;;18.33;;
4375;SDS011;2202;50.866;12.750;2023-11-22T11:44:03;22.90;;;15.57;;
4375;SDS011;2202;50.866;12.750;2023-11-22T11:46:35;24.13;;;15.97;;
4375;SDS011;2202;50.866;12.750;2023-11-22T11:49:05;24.47;;;15.73;;
4375;SDS011;2202;50.866;12.750;2023-11-22T11:51:33;21.63;;;15.23;;
4375;SDS011;2202;50.866;12.750;2023-11-22T11:54:00;31.93;;;17.70;;
4375;SDS011;2202;50.866;12.750;2023-11-22T11:56:26;23.83;;;15.63;;
4375;SDS011;2202;50.866;12.750;2023-11-22T11:58:55;21.77;;;14.80;;
4375;SDS011;2202;50.866;12.750;2023-11-22T12:01:24;26.30;;;16.50;;
4375;SDS011;2202;50.866;12.750;2023-11-22T12:03:56;18.97;;;12.50;;
4375;SDS011;2202;50.866;12.750;2023-11-22T12:06:22;17.80;;;14.17;;
4375;SDS011;2202;50.866;12.750;2023-11-22T12:08:49;22.80;;;15.30;;
4375;SDS011;2202;50.866;12.750;2023-11-22T12:11:16;19.23;;;15.00;;
4375;SDS011;2202;50.866;12.750;2023-11-22T12:13:43;24.70;;;14.63;;
4375;SDS011;2202;50.866;12.750;2023-11-22T12:16:13;22.43;;;14.20;;
4375;SDS011;2202;50.866;12.750;2023-11-22T12:18:42;23.50;;;14.87;;
4375;SDS011;2202;50.866;12.750;2023-11-22T12:21:11;24.30;;;15.80;;
4375;SDS011;2202;50.866;12.750;2023-11-22T12:23:39;27.53;;;16.57;;
4375;SDS011;2202;50.866;12.750;2023-11-22T12:26:09;22.03;;;14.77;;
4375;SDS011;2202;50.866;12.750;2023-11-22T12:28:39;22.27;;;14.17;;
4375;SDS011;2202;50.866;12.750;2023-11-22T12:31:06;27.43;;;18.93;;
4375;SDS011;2202;50.866;12.750;2023-11-22T12:33:34;24.60;;;15.37;;
4375;SDS011;2202;50.866;12.750;2023-11-22T12:36:01;26.13;;;15.23;;
4375;SDS011;2202;50.866;12.750;2023-11-22T12:38:30;25.80;;;18.00;;
4375;SDS011;2202;50.866;12.750;2023-11-22T12:40:57;22.90;;;16.00;;
4375;SDS011;2202;50.866;12.750;2023-11-22T12:43:24;23.07;;;16.50;;
4375;SDS011;2202;50.866;12.750;2023-11-22T12:45:58;26.37;;;18.17;;
4375;SDS011;2202;50.866;12.750;2023-11-22T12:48:25;22.57;;;15.27;;
4375;SDS011;2202;50.866;12.750;2023-11-22T12:50:55;22.40;;;14.83;;
4375;SDS011;2202;50.866;12.750;2023-11-22T12:53:22;21.57;;;14.93;;
4375;SDS011;2202;50.866;12.750;2023-11-22T12:55:52;21.53;;;16.17;;
4375;SDS011;2202;50.866;12.750;2023-11-22T12:58:20;24.17;;;16.90;;
4375;SDS011;2202;50.866;12.750;2023-11-22T13:00:49;21.80;;;15.20;;
4375;SDS011;2202;50.866;12.750;2023-11-22T13:03:19;26.77;;;15.20;;
4375;SDS011;2202;50.866;12.750;2023-11-22T13:05:46;21.63;;;15.90;;
4375;SDS011;2202;50.866;12.750;2023-11-22T13:08:13;23.47;;;16.23;;
4375;SDS011;2202;50.866;12.750;2023-11-22T13:10:43;22.77;;;15.60;;
4375;SDS011;2202;50.866;12.750;2023-11-22T13:13:12;25.27;;;16.13;;
4375;SDS011;2202;50.866;12.750;2023-11-22T13:15:40;21.90;;;15.33;;
4375;SDS011;2202;50.866;12.750;2023-11-22T13:18:07;20.57;;;13.63;;
4375;SDS011;2202;50.866;12.750;2023-11-22T13:20:34;25.47;;;15.60;;
4375;SDS011;2202;50.866;12.750;2023-11-22T13:23:03;19.37;;;14.33;;
4375;SDS011;2202;50.866;12.750;2023-11-22T13:25:30;21.97;;;13.70;;
4375;SDS011;2202;50.866;12.750;2023-11-22T13:27:57;23.87;;;16.00;;
4375;SDS011;2202;50.866;12.750;2023-11-22T13:30:26;26.90;;;16.90;;
4375;SDS011;2202;50.866;12.750;2023-11-22T13:32:54;27.37;;;17.13;;
4375;SDS011;2202;50.866;12.750;2023-11-22T13:35:22;27.20;;;17.13;;
4375;SDS011;2202;50.866;12.750;2023-11-22T13:37:49;30.97;;;19.90;;
4375;SDS011;2202;50.866;12.750;2023-11-22T13:40:16;27.57;;;17.70;;
4375;SDS011;2202;50.866;12.750;2023-11-22T13:42:47;28.60;;;17.43;;
4375;SDS011;2202;50.866;12.750;2023-11-22T13:45:17;23.67;;;17.80;;
4375;SDS011;2202;50.866;12.750;2023-11-22T13:47:48;36.77;;;21.23;;
4375;SDS011;2202;50.866;12.750;2023-11-22T13:50:15;22.93;;;16.13;;
4375;SDS011;2202;50.866;12.750;2023-11-22T13:52:47;25.80;;;18.47;;
4375;SDS011;2202;50.866;12.750;2023-11-22T13:55:14;24.33;;;16.77;;
4375;SDS011;2202;50.866;12.750;2023-11-22T13:57:47;24.20;;;17.20;;
4375;SDS011;2202;50.866;12.750;2023-11-22T14:00:15;25.33;;;17.87;;
4375;SDS011;2202;50.866;12.750;2023-11-22T14:02:44;21.27;;;15.97;;
4375;SDS011;2202;50.866;12.750;2023-11-22T14:05:13;23.73;;;15.90;;
4375;SDS011;2202;50.866;12.750;2023-11-22T14:07:40;27.60;;;18.07;;
4375;SDS011;2202;50.866;12.750;2023-11-22T14:10:07;24.83;;;16.90;;
4375;SDS011;2202;50.866;12.750;2023-11-22T14:12:35;27.33;;;18.30;;
4375;SDS011;2202;50.866;12.750;2023-11-22T14:15:03;28.80;;;20.40;;
4375;SDS011;2202;50.866;12.750;2023-11-22T14:17:31;27.57;;;18.07;;
4375;SDS011;2202;50.866;12.750;2023-11-22T14:19:59;23.23;;;17.20;;
4375;SDS011;2202;50.866;12.750;2023-11-22T14:22:26;25.80;;;17.03;;
4375;SDS011;2202;50.866;12.750;2023-11-22T14:24:53;24.90;;;17.57;;
4375;SDS011;2202;50.866;12.750;2023-11-22T14:27:20;26.10;;;17.60;;
4375;SDS011;2202;50.866;12.750;2023-11-22T14:29:47;33.27;;;21.53;;
4375;SDS011;2202;50.866;12.750;2023-11-22T14:32:15;33.37;;;21.27;;
4375;SDS011;2202;50.866;12.750;2023-11-22T14:34:42;33.03;;;19.80;;
4375;SDS011;2202;50.866;12.750;2023-11-22T14:37:11;28.90;;;19.07;;